createdAt,value
2019-01-29T00:01:55.015Z,21.13
2019-01-29T00:04:25.545Z,21.80
2019-01-29T00:06:56.012Z,21.20
2019-01-29T00:09:26.518Z,22.17
2019-01-29T00:11:56.998Z,18.87
2019-01-29T00:14:27.506Z,19.63
2019-01-29T00:16:57.973Z,19.80
2019-01-29T00:19:28.565Z,20.57
2019-01-29T00:21:59.030Z,20.33
2019-01-29T00:24:31.246Z,20.30
2019-01-29T00:27:01.711Z,20.30
2019-01-29T00:29:32.222Z,20.93
2019-01-29T00:32:02.692Z,20.17
2019-01-29T00:34:33.202Z,20.10
2019-01-29T00:37:03.706Z,19.70
2019-01-29T00:39:34.168Z,20.30
2019-01-29T00:42:04.671Z,18.60
2019-01-29T00:44:35.153Z,20.53
2019-01-29T00:47:05.901Z,19.57
2019-01-29T00:49:36.367Z,19.73
2019-01-29T00:52:06.860Z,17.83
2019-01-29T00:54:37.360Z,18.03
2019-01-29T00:57:07.830Z,18.17
2019-01-29T00:59:38.404Z,16.97
2019-01-29T01:02:08.940Z,18.03
2019-01-29T01:04:39.591Z,17.10
2019-01-29T01:07:11.834Z,16.40
2019-01-29T01:09:42.315Z,17.67
2019-01-29T01:12:12.823Z,16.63
2019-01-29T01:14:43.318Z,16.30
2019-01-29T01:17:13.813Z,18.60
2019-01-29T01:19:44.289Z,17.17
2019-01-29T01:22:14.856Z,18.43
2019-01-29T01:24:45.318Z,18.50
2019-01-29T01:27:15.893Z,17.67
2019-01-29T01:29:46.368Z,17.20
2019-01-29T01:32:16.872Z,17.70
2019-01-29T01:34:47.365Z,18.70
2019-01-29T01:37:17.902Z,17.90
2019-01-29T01:39:48.402Z,17.30
2019-01-29T01:42:18.902Z,17.60
2019-01-29T01:44:49.367Z,18.97
2019-01-29T01:47:19.862Z,17.33
2019-01-29T01:49:50.332Z,16.60
2019-01-29T01:52:20.827Z,16.57
2019-01-29T01:54:51.294Z,18.10
2019-01-29T01:57:21.797Z,17.73
2019-01-29T01:59:52.267Z,15.93
2019-01-29T02:02:22.783Z,16.57
2019-01-29T02:04:53.254Z,16.90
2019-01-29T02:07:23.771Z,14.50
2019-01-29T02:09:55.505Z,14.60
2019-01-29T02:12:26.017Z,16.80
2019-01-29T02:14:56.517Z,17.27
2019-01-29T02:17:26.982Z,16.37
2019-01-29T02:19:57.491Z,15.70
2019-01-29T02:22:28.836Z,17.17
2019-01-29T02:24:59.343Z,16.40
2019-01-29T02:27:29.826Z,13.23
2019-01-29T02:30:00.344Z,15.23
2019-01-29T02:32:30.828Z,14.70
2019-01-29T02:35:01.287Z,12.83
2019-01-29T02:37:32.658Z,13.40
2019-01-29T02:40:03.599Z,13.70
2019-01-29T02:42:34.108Z,13.37
2019-01-29T02:45:10.944Z,12.37
2019-01-29T02:47:41.535Z,12.30
2019-01-29T02:50:15.457Z,12.90
2019-01-29T02:52:46.064Z,13.73
2019-01-29T02:55:16.826Z,12.60
2019-01-29T02:57:47.300Z,12.50
2019-01-29T03:00:21.875Z,11.03
2019-01-29T03:02:52.414Z,11.23
2019-01-29T03:05:24.737Z,13.80
2019-01-29T03:07:55.524Z,11.87
2019-01-29T03:10:27.664Z,12.33
2019-01-29T03:12:58.368Z,12.37
2019-01-29T03:15:31.986Z,13.80
2019-01-29T03:18:02.643Z,12.50
2019-01-29T03:20:34.401Z,12.50
2019-01-29T03:23:04.976Z,11.80
2019-01-29T03:25:35.536Z,14.70
2019-01-29T03:28:06.149Z,12.43
2019-01-29T03:30:38.184Z,11.50
2019-01-29T03:33:08.653Z,12.50
2019-01-29T03:35:39.174Z,12.97
2019-01-29T03:38:09.632Z,14.10
2019-01-29T03:40:40.770Z,13.50
2019-01-29T03:43:11.237Z,12.63
2019-01-29T03:45:41.731Z,13.47
2019-01-29T03:48:12.231Z,13.60
2019-01-29T03:50:42.743Z,14.37
2019-01-29T03:53:14.268Z,14.47
2019-01-29T03:55:44.847Z,12.80
2019-01-29T03:58:15.326Z,12.60
2019-01-29T04:00:47.104Z,12.00
2019-01-29T04:03:17.581Z,13.20
2019-01-29T04:05:48.087Z,13.40
2019-01-29T04:08:18.567Z,14.17
2019-01-29T04:10:49.069Z,12.67
2019-01-29T04:13:19.546Z,12.97
2019-01-29T04:15:50.127Z,14.33
2019-01-29T04:18:20.589Z,14.80
2019-01-29T04:20:51.138Z,13.90
2019-01-29T04:23:21.603Z,13.70
2019-01-29T04:25:52.184Z,15.30
2019-01-29T04:28:22.646Z,14.90
2019-01-29T04:30:53.231Z,14.57
2019-01-29T04:33:23.727Z,13.93
2019-01-29T04:35:54.200Z,13.57
2019-01-29T04:38:24.715Z,13.53
2019-01-29T04:40:55.183Z,15.40
2019-01-29T04:43:25.701Z,54.83
2019-01-29T04:45:56.237Z,33.57
2019-01-29T04:48:26.742Z,40.47
2019-01-29T04:50:57.233Z,41.70
2019-01-29T04:53:27.732Z,41.67
2019-01-29T04:55:58.206Z,50.80
2019-01-29T04:58:28.721Z,30.97
2019-01-29T05:00:59.200Z,21.23
2019-01-29T05:03:29.698Z,13.60
2019-01-29T05:06:00.207Z,15.30
2019-01-29T05:08:30.720Z,16.83
2019-01-29T05:11:01.188Z,15.63
2019-01-29T05:13:31.695Z,15.80
2019-01-29T05:16:02.170Z,15.80
2019-01-29T05:18:32.776Z,15.83
2019-01-29T05:21:03.250Z,16.23
2019-01-29T05:23:33.767Z,15.57
2019-01-29T05:26:04.250Z,16.60
2019-01-29T05:28:34.747Z,15.03
2019-01-29T05:31:05.215Z,14.80
2019-01-29T05:33:35.719Z,16.90
2019-01-29T05:36:06.206Z,15.57
2019-01-29T05:38:38.217Z,15.47
2019-01-29T05:41:08.724Z,15.27
2019-01-29T05:43:39.215Z,15.37
2019-01-29T05:46:09.736Z,17.60
2019-01-29T05:48:40.274Z,16.87
2019-01-29T05:51:10.787Z,16.40
2019-01-29T05:53:41.261Z,18.20
2019-01-29T05:56:11.766Z,17.50
2019-01-29T05:58:42.242Z,17.97
2019-01-29T06:01:12.743Z,16.60
2019-01-29T06:03:43.210Z,18.10
2019-01-29T06:06:13.714Z,43.07
2019-01-29T06:08:44.289Z,37.90
2019-01-29T06:11:16.527Z,20.20
2019-01-29T06:13:47.801Z,17.40
2019-01-29T06:16:18.385Z,18.23
2019-01-29T06:18:48.867Z,17.90
2019-01-29T06:21:19.399Z,16.57
2019-01-29T06:23:49.869Z,19.10
2019-01-29T06:26:20.451Z,19.57
2019-01-29T06:28:50.950Z,20.40
2019-01-29T06:31:21.443Z,20.43
2019-01-29T06:33:52.515Z,18.70
2019-01-29T06:36:24.134Z,18.93
2019-01-29T06:38:54.631Z,19.93
2019-01-29T06:41:25.136Z,19.93
2019-01-29T06:43:55.835Z,20.53
2019-01-29T06:46:26.326Z,19.63
2019-01-29T06:48:56.842Z,18.13
2019-01-29T06:51:27.319Z,18.87
2019-01-29T06:53:57.829Z,20.43
2019-01-29T06:56:28.396Z,18.93
2019-01-29T06:58:58.963Z,18.67
2019-01-29T07:01:29.439Z,20.93
2019-01-29T07:04:02.206Z,20.37
2019-01-29T07:06:32.714Z,22.03
2019-01-29T07:09:04.832Z,28.63
2019-01-29T07:11:35.332Z,23.53
2019-01-29T07:14:05.943Z,23.13
2019-01-29T07:16:38.160Z,20.10
2019-01-29T07:19:10.292Z,21.63
2019-01-29T07:21:42.466Z,20.80
2019-01-29T07:24:13.096Z,18.23
2019-01-29T07:26:43.562Z,17.20
2019-01-29T07:29:14.064Z,17.33
2019-01-29T07:31:44.538Z,18.07
2019-01-29T07:34:15.040Z,18.80
2019-01-29T07:36:45.513Z,16.90
2019-01-29T07:39:16.064Z,16.80
2019-01-29T07:41:46.528Z,16.57
2019-01-29T07:44:17.028Z,17.93
2019-01-29T07:46:47.525Z,18.87
2019-01-29T07:49:17.994Z,16.80
2019-01-29T07:51:48.491Z,17.50
2019-01-29T07:54:18.993Z,18.70
2019-01-29T07:56:49.459Z,17.80
2019-01-29T07:59:32.554Z,18.10
2019-01-29T08:01:52.168Z,21.27
2019-01-29T08:04:22.662Z,20.43
2019-01-29T08:06:53.154Z,24.40
2019-01-29T08:09:23.733Z,31.30
2019-01-29T08:11:54.200Z,29.73
2019-01-29T08:14:24.702Z,32.17
2019-01-29T08:16:55.257Z,27.53
2019-01-29T08:19:25.753Z,28.23
2019-01-29T08:21:56.234Z,27.10
2019-01-29T08:24:27.802Z,28.50
2019-01-29T08:26:58.451Z,27.47
2019-01-29T08:29:30.670Z,28.67
2019-01-29T08:32:01.345Z,24.97
2019-01-29T08:34:31.847Z,26.07
2019-01-29T08:37:03.339Z,26.10
2019-01-29T08:39:33.824Z,26.17
2019-01-29T08:42:04.554Z,24.93
2019-01-29T08:44:35.045Z,25.90
2019-01-29T08:47:05.612Z,25.87
2019-01-29T08:49:36.084Z,26.40
2019-01-29T08:52:06.661Z,27.90
2019-01-29T08:54:37.130Z,27.50
2019-01-29T08:57:08.962Z,28.60
2019-01-29T08:59:39.645Z,27.07
2019-01-29T09:02:10.145Z,28.40
2019-01-29T09:04:40.717Z,25.73
2019-01-29T09:07:11.174Z,24.87
2019-01-29T09:09:41.660Z,25.33
2019-01-29T09:12:12.121Z,25.30
2019-01-29T09:14:42.763Z,26.23
2019-01-29T09:17:13.256Z,27.33
2019-01-29T09:19:43.751Z,25.07
2019-01-29T09:22:14.214Z,26.40
2019-01-29T09:24:44.716Z,25.27
2019-01-29T09:27:15.256Z,27.10
2019-01-29T09:29:45.763Z,24.90
2019-01-29T09:32:16.291Z,41.70
2019-01-29T09:34:46.878Z,43.63
2019-01-29T09:37:17.343Z,28.83
2019-01-29T09:39:47.846Z,28.07
2019-01-29T09:42:18.315Z,25.50
2019-01-29T09:44:48.851Z,26.70
2019-01-29T09:47:19.375Z,21.37
2019-01-29T09:49:49.895Z,42.60
2019-01-29T09:52:20.364Z,67.60
2019-01-29T09:54:50.853Z,27.03
2019-01-29T09:57:21.326Z,22.50
2019-01-29T09:59:51.820Z,22.50
2019-01-29T10:02:22.323Z,20.33
2019-01-29T10:04:52.783Z,20.07
2019-01-29T10:07:23.295Z,20.80
2019-01-29T10:09:53.762Z,23.20
2019-01-29T10:12:24.254Z,24.97
2019-01-29T10:14:54.712Z,22.70
2019-01-29T10:17:25.473Z,25.63
2019-01-29T10:20:02.567Z,26.50
2019-01-29T10:22:28.135Z,28.50
2019-01-29T10:24:58.712Z,29.17
2019-01-29T10:27:29.217Z,27.00
2019-01-29T10:29:59.679Z,26.43
2019-01-29T10:32:30.175Z,27.73
2019-01-29T10:35:00.675Z,25.50
2019-01-29T10:37:31.145Z,25.43
2019-01-29T10:40:01.602Z,29.23
2019-01-29T10:42:32.145Z,30.90
2019-01-29T10:45:03.025Z,27.30
2019-01-29T10:47:33.490Z,25.90
2019-01-29T10:50:06.650Z,27.53
2019-01-29T10:52:37.244Z,23.20
2019-01-29T10:55:09.653Z,25.40
2019-01-29T10:57:40.105Z,25.20
2019-01-29T11:00:30.545Z,26.63
2019-01-29T11:03:01.096Z,28.10
2019-01-29T11:05:32.365Z,25.70
2019-01-29T11:08:03.480Z,25.43
2019-01-29T11:10:34.004Z,26.73
2019-01-29T11:13:04.926Z,24.30
2019-01-29T11:15:38.901Z,23.03
2019-01-29T11:18:12.997Z,23.13
2019-01-29T11:20:43.839Z,25.80
2019-01-29T11:23:14.460Z,26.23
2019-01-29T11:25:45.067Z,23.03
2019-01-29T11:28:15.552Z,25.60
2019-01-29T11:30:47.415Z,25.73
2019-01-29T11:33:17.995Z,26.10
2019-01-29T11:35:48.492Z,24.40
2019-01-29T11:38:18.947Z,25.57
2019-01-29T11:40:49.507Z,32.03
2019-01-29T11:43:19.958Z,52.80
2019-01-29T11:45:51.797Z,30.23
2019-01-29T11:48:22.334Z,24.30
2019-01-29T11:50:52.900Z,23.77
2019-01-29T11:53:23.354Z,24.87
2019-01-29T11:55:53.951Z,25.10
2019-01-29T11:58:24.422Z,20.60
2019-01-29T12:00:56.681Z,20.33
2019-01-29T12:03:27.281Z,21.73
2019-01-29T12:05:57.778Z,21.53
2019-01-29T12:08:28.515Z,23.33
2019-01-29T12:10:59.071Z,22.17
2019-01-29T12:13:29.531Z,22.80
2019-01-29T12:16:00.030Z,22.47
2019-01-29T12:18:30.588Z,20.90
2019-01-29T12:21:01.082Z,22.30
2019-01-29T12:23:31.553Z,22.33
2019-01-29T12:26:02.074Z,24.10
2019-01-29T12:28:32.555Z,18.70
2019-01-29T12:31:03.080Z,7.87
2019-01-29T12:33:33.704Z,5.67
2019-01-29T12:36:04.213Z,4.40
2019-01-29T12:38:34.700Z,4.10
2019-01-29T12:41:05.238Z,4.60
2019-01-29T12:43:35.715Z,4.90
2019-01-29T12:46:06.634Z,5.33
2019-01-29T12:48:37.115Z,5.70
2019-01-29T12:51:09.272Z,4.70
2019-01-29T12:53:39.773Z,4.40
2019-01-29T12:56:10.228Z,4.83
2019-01-29T12:58:40.737Z,5.03
2019-01-29T13:01:11.355Z,4.37
2019-01-29T13:03:41.839Z,4.80
2019-01-29T13:06:12.302Z,5.20
2019-01-29T13:08:42.779Z,4.60
2019-01-29T13:11:13.402Z,4.50
2019-01-29T13:13:43.939Z,5.23
2019-01-29T13:16:14.426Z,5.83
2019-01-29T13:18:44.883Z,6.50
2019-01-29T13:21:15.383Z,5.20
2019-01-29T13:23:45.840Z,8.70
2019-01-29T13:26:16.327Z,22.03
2019-01-29T13:28:46.788Z,19.87
2019-01-29T13:31:17.342Z,17.03
2019-01-29T13:33:47.809Z,9.70
2019-01-29T13:36:18.290Z,7.23
2019-01-29T13:38:48.846Z,5.33
2019-01-29T13:41:19.407Z,5.20
2019-01-29T13:43:49.864Z,3.83
2019-01-29T13:46:20.558Z,4.47
2019-01-29T13:48:51.089Z,7.20
2019-01-29T13:51:21.583Z,3.90
2019-01-29T13:53:52.097Z,3.63
2019-01-29T13:56:22.672Z,3.23
2019-01-29T13:58:53.119Z,3.73
2019-01-29T14:01:23.682Z,3.83
2019-01-29T14:03:54.172Z,3.70
2019-01-29T14:06:24.621Z,3.90
2019-01-29T14:08:55.128Z,4.70
2019-01-29T14:11:25.588Z,3.83
2019-01-29T14:13:56.126Z,3.80
2019-01-29T14:16:26.592Z,4.17
2019-01-29T14:18:57.102Z,4.80
2019-01-29T14:21:27.627Z,4.50
2019-01-29T14:23:58.158Z,4.17
2019-01-29T14:26:28.669Z,4.33
2019-01-29T14:28:59.228Z,4.70
2019-01-29T14:31:49.041Z,4.40
2019-01-29T14:34:21.961Z,5.10
2019-01-29T14:36:52.443Z,4.63
2019-01-29T14:39:26.698Z,4.70
2019-01-29T14:41:57.194Z,5.17
2019-01-29T14:44:27.727Z,5.30
2019-01-29T14:46:58.219Z,4.60
2019-01-29T14:49:28.693Z,5.20
2019-01-29T14:51:59.251Z,5.47
2019-01-29T14:54:29.861Z,4.80
2019-01-29T14:57:00.381Z,5.90
2019-01-29T14:59:30.798Z,5.70
2019-01-29T15:02:01.288Z,4.80
2019-01-29T15:04:32.693Z,6.07
2019-01-29T15:07:03.194Z,5.13
2019-01-29T15:09:33.677Z,23.80
2019-01-29T15:12:04.169Z,18.93
2019-01-29T15:14:34.659Z,19.07
2019-01-29T15:17:07.220Z,21.73
2019-01-29T15:19:37.698Z,22.33
2019-01-29T15:22:08.303Z,24.80
2019-01-29T15:24:38.792Z,27.30
2019-01-29T15:27:09.400Z,27.90
2019-01-29T15:29:40.302Z,26.57
2019-01-29T15:32:12.086Z,28.97
2019-01-29T15:34:44.202Z,27.10
2019-01-29T15:37:14.655Z,27.07
2019-01-29T15:39:45.149Z,25.03
2019-01-29T15:42:15.652Z,28.30
2019-01-29T15:44:46.116Z,26.77
2019-01-29T15:47:16.690Z,24.30
2019-01-29T15:49:47.187Z,27.40
2019-01-29T15:52:17.649Z,26.10
2019-01-29T15:54:48.724Z,20.03
2019-01-29T15:57:19.190Z,23.43
2019-01-29T15:59:49.721Z,26.87
2019-01-29T16:02:20.192Z,22.97
2019-01-29T16:04:50.844Z,25.73
2019-01-29T16:07:21.311Z,24.03
2019-01-29T16:09:51.797Z,23.97
2019-01-29T16:12:22.268Z,25.63
2019-01-29T16:14:52.757Z,25.10
2019-01-29T16:17:23.338Z,22.80
2019-01-29T16:19:53.895Z,22.77
2019-01-29T16:22:25.955Z,24.80
2019-01-29T16:24:56.438Z,24.30
2019-01-29T16:27:26.935Z,23.60
2019-01-29T16:29:57.441Z,27.93
2019-01-29T16:32:27.900Z,23.93
2019-01-29T16:34:58.402Z,26.03
2019-01-29T16:37:29.422Z,25.97
2019-01-29T16:39:59.934Z,37.50
2019-01-29T16:42:30.393Z,24.90
2019-01-29T16:45:00.961Z,24.97
2019-01-29T16:47:31.430Z,31.00
2019-01-29T16:50:01.965Z,20.23
2019-01-29T16:52:32.460Z,17.60
2019-01-29T16:55:02.956Z,16.00
2019-01-29T16:57:34.756Z,17.93
2019-01-29T17:00:09.981Z,20.70
2019-01-29T17:02:40.441Z,17.40
2019-01-29T17:05:11.594Z,19.43
2019-01-29T17:07:42.253Z,17.20
2019-01-29T17:10:17.815Z,19.37
2019-01-29T17:12:48.597Z,18.93
2019-01-29T17:15:23.169Z,18.17
2019-01-29T17:17:55.597Z,23.77
2019-01-29T17:20:46.869Z,125.67
2019-01-29T17:23:28.767Z,29.53
2019-01-29T17:25:59.319Z,26.07
2019-01-29T17:28:29.784Z,23.33
2019-01-29T17:31:00.283Z,22.90
2019-01-29T17:33:31.128Z,23.67
2019-01-29T17:36:01.624Z,20.83
2019-01-29T17:38:32.136Z,22.47
2019-01-29T17:41:02.717Z,18.90
2019-01-29T17:43:33.249Z,20.70
2019-01-29T17:46:03.840Z,22.20
2019-01-29T17:48:34.302Z,19.87
2019-01-29T17:51:05.239Z,18.73
2019-01-29T17:53:38.459Z,20.07
2019-01-29T17:56:08.981Z,19.80
2019-01-29T17:58:39.506Z,19.47
2019-01-29T18:01:10.365Z,19.13
2019-01-29T18:03:40.819Z,17.37
2019-01-29T18:06:11.580Z,18.03
2019-01-29T18:08:49.644Z,15.07
2019-01-29T18:11:14.307Z,16.23
2019-01-29T18:13:44.798Z,17.40
2019-01-29T18:16:15.341Z,16.17
2019-01-29T18:18:45.872Z,16.30
2019-01-29T18:21:16.404Z,16.23
2019-01-29T18:23:46.913Z,14.57
2019-01-29T18:26:17.373Z,15.50
2019-01-29T18:28:47.863Z,17.17
2019-01-29T18:31:18.323Z,20.37
2019-01-29T18:33:48.832Z,21.00
2019-01-29T18:36:19.331Z,21.97
2019-01-29T18:38:49.835Z,20.70
2019-01-29T18:41:20.292Z,21.50
2019-01-29T18:43:50.796Z,20.53
2019-01-29T18:46:21.263Z,21.03
2019-01-29T18:48:51.761Z,19.93
2019-01-29T18:51:22.297Z,20.37
2019-01-29T18:53:52.836Z,20.13
2019-01-29T18:56:23.310Z,19.67
2019-01-29T18:58:53.824Z,19.80
2019-01-29T19:01:24.282Z,20.80
2019-01-29T19:03:54.773Z,21.43
2019-01-29T19:06:25.265Z,22.13
2019-01-29T19:08:55.773Z,21.63
2019-01-29T19:11:26.252Z,24.33
2019-01-29T19:13:56.849Z,25.20
2019-01-29T19:16:27.348Z,31.83
2019-01-29T19:18:57.834Z,32.40
2019-01-29T19:21:28.326Z,29.40
2019-01-29T19:23:58.786Z,30.67
2019-01-29T19:26:29.284Z,27.90
2019-01-29T19:28:59.772Z,29.93
2019-01-29T19:31:31.338Z,31.20
2019-01-29T19:34:01.850Z,30.43
2019-01-29T19:36:32.878Z,27.30
2019-01-29T19:39:05.079Z,26.10
2019-01-29T19:41:35.617Z,24.97
2019-01-29T19:44:06.189Z,20.20
2019-01-29T19:46:36.649Z,22.00
2019-01-29T19:49:07.146Z,25.40
2019-01-29T19:51:37.615Z,27.43
2019-01-29T19:54:08.188Z,25.50
2019-01-29T19:56:38.830Z,26.17
2019-01-29T19:59:09.326Z,26.17
2019-01-29T20:01:39.792Z,25.20
2019-01-29T20:04:10.305Z,23.13
2019-01-29T20:06:40.787Z,22.57
2019-01-29T20:09:12.667Z,22.20
2019-01-29T20:11:43.272Z,19.20
2019-01-29T20:14:13.783Z,18.20
2019-01-29T20:16:44.266Z,20.07
2019-01-29T20:19:14.758Z,22.77
2019-01-29T20:21:45.251Z,26.20
2019-01-29T20:24:17.104Z,30.23
2019-01-29T20:26:47.774Z,31.50
2019-01-29T20:29:18.273Z,29.90
2019-01-29T20:31:48.860Z,30.63
2019-01-29T20:34:20.006Z,30.60
2019-01-29T20:36:50.498Z,31.57
2019-01-29T20:39:23.713Z,32.30
2019-01-29T20:41:54.224Z,30.90
2019-01-29T20:44:24.712Z,33.07
2019-01-29T20:46:55.275Z,32.50
2019-01-29T20:49:26.309Z,31.63
2019-01-29T20:51:56.891Z,30.93
2019-01-29T20:54:27.372Z,31.20
2019-01-29T20:56:57.870Z,28.53
2019-01-29T20:59:28.346Z,30.60
2019-01-29T21:01:58.843Z,28.80
2019-01-29T21:04:29.420Z,28.53
2019-01-29T21:06:59.957Z,26.27
2019-01-29T21:09:30.462Z,25.80
2019-01-29T21:12:01.097Z,25.47
2019-01-29T21:14:31.674Z,25.63
2019-01-29T21:17:02.188Z,24.43
2019-01-29T21:19:32.698Z,25.20
2019-01-29T21:22:03.225Z,26.87
2019-01-29T21:24:48.614Z,23.07
2019-01-29T21:27:19.121Z,23.70
2019-01-29T21:29:49.626Z,24.53
2019-01-29T21:32:20.102Z,23.00
2019-01-29T21:34:50.604Z,22.70
2019-01-29T21:37:21.110Z,20.30
2019-01-29T21:39:51.594Z,20.30
2019-01-29T21:42:22.111Z,24.80
2019-01-29T21:44:52.572Z,30.77
2019-01-29T21:47:23.073Z,31.67
2019-01-29T21:49:53.653Z,32.30
2019-01-29T21:52:24.151Z,27.93
2019-01-29T21:54:54.693Z,28.87
2019-01-29T21:57:25.196Z,32.13
2019-01-29T21:59:55.670Z,29.20
2019-01-29T22:02:26.173Z,28.60
2019-01-29T22:04:56.640Z,27.67
2019-01-29T22:07:27.128Z,29.57
2019-01-29T22:09:57.644Z,28.83
2019-01-29T22:12:28.135Z,29.33
2019-01-29T22:14:58.611Z,27.07
2019-01-29T22:17:29.126Z,28.53
2019-01-29T22:19:59.586Z,27.37
2019-01-29T22:22:30.086Z,28.70
2019-01-29T22:25:00.558Z,24.57
2019-01-29T22:27:31.071Z,21.50
2019-01-29T22:30:01.562Z,20.40
2019-01-29T22:32:32.048Z,21.67
2019-01-29T22:35:02.517Z,23.40
2019-01-29T22:37:33.020Z,21.50
2019-01-29T22:40:05.306Z,22.07
2019-01-29T22:42:35.780Z,21.50
2019-01-29T22:45:16.355Z,21.03
2019-01-29T22:47:47.495Z,20.17
2019-01-29T22:50:27.527Z,22.40
2019-01-29T22:52:58.135Z,22.47
2019-01-29T22:55:28.873Z,21.93
2019-01-29T22:57:59.414Z,22.67
2019-01-29T23:00:49.842Z,20.60
2019-01-29T23:03:34.489Z,19.73
2019-01-29T23:06:15.054Z,20.33
2019-01-29T23:08:45.577Z,19.90
2019-01-29T23:11:16.120Z,20.33
2019-01-29T23:13:46.760Z,20.60
2019-01-29T23:16:17.303Z,19.83
2019-01-29T23:18:47.807Z,19.27
2019-01-29T23:21:18.276Z,21.43
2019-01-29T23:23:48.809Z,20.30
2019-01-29T23:26:19.282Z,20.00
2019-01-29T23:28:49.777Z,19.87
2019-01-29T23:31:20.253Z,20.97
2019-01-29T23:33:50.754Z,20.40
2019-01-29T23:36:21.333Z,19.20
2019-01-29T23:38:51.808Z,19.90
2019-01-29T23:41:22.314Z,20.20
2019-01-29T23:43:52.783Z,19.93
2019-01-29T23:46:23.340Z,21.00
2019-01-29T23:48:53.805Z,21.83
2019-01-29T23:51:24.328Z,22.10
2019-01-29T23:53:54.799Z,20.97
2019-01-29T23:56:25.308Z,22.47
2019-01-29T23:58:55.773Z,22.17
